createdAt,value
2017-09-03T00:01:37.737Z,13.07
2017-09-03T00:04:04.045Z,13.07
2017-09-03T00:06:30.973Z,20.90
2017-09-03T00:08:57.248Z,32.13
2017-09-03T00:11:24.024Z,49.03
2017-09-03T00:13:50.250Z,66.93
2017-09-03T00:16:16.485Z,30.47
2017-09-03T00:18:42.742Z,29.70
2017-09-03T00:21:09.210Z,17.73
2017-09-03T00:23:37.042Z,20.23
2017-09-03T00:26:03.333Z,12.40
2017-09-03T00:28:30.470Z,19.63
2017-09-03T00:30:56.832Z,23.20
2017-09-03T00:33:23.078Z,32.47
2017-09-03T00:35:49.348Z,12.63
2017-09-03T00:38:15.602Z,21.27
2017-09-03T00:40:41.883Z,12.67
2017-09-03T00:43:08.182Z,12.10
2017-09-03T00:45:34.728Z,11.27
2017-09-03T00:48:01.881Z,10.90
2017-09-03T00:50:28.181Z,28.77
2017-09-03T00:52:54.683Z,23.47
2017-09-03T00:55:20.940Z,25.73
2017-09-03T00:57:47.510Z,12.23
2017-09-03T01:00:13.796Z,19.53
2017-09-03T01:02:40.062Z,17.53
2017-09-03T01:05:06.739Z,14.47
2017-09-03T01:07:32.979Z,20.07
2017-09-03T01:09:59.234Z,15.63
2017-09-03T01:12:25.613Z,14.20
2017-09-03T01:14:51.997Z,10.20
2017-09-03T01:17:18.293Z,10.10
2017-09-03T01:19:44.698Z,10.47
2017-09-03T01:22:10.926Z,12.03
2017-09-03T01:24:37.157Z,11.07
2017-09-03T01:27:03.423Z,14.03
2017-09-03T01:29:29.663Z,10.90
2017-09-03T01:31:55.851Z,14.57
2017-09-03T01:34:22.094Z,12.43
2017-09-03T01:36:48.302Z,9.13
2017-09-03T01:39:14.509Z,14.30
2017-09-03T01:41:40.743Z,11.00
2017-09-03T01:44:06.949Z,12.33
2017-09-03T01:46:33.164Z,11.07
2017-09-03T01:48:59.907Z,10.80
2017-09-03T01:51:26.116Z,10.40
2017-09-03T01:53:52.411Z,11.50
2017-09-03T01:56:18.634Z,11.00
2017-09-03T01:58:44.838Z,11.30
2017-09-03T02:01:11.495Z,10.73
2017-09-03T02:03:37.728Z,9.87
2017-09-03T02:06:03.960Z,11.83
2017-09-03T02:08:30.540Z,10.40
2017-09-03T02:10:56.880Z,10.97
2017-09-03T02:13:23.092Z,9.70
2017-09-03T02:15:49.294Z,10.33
2017-09-03T02:18:15.549Z,10.20
2017-09-03T02:20:41.784Z,11.43
2017-09-03T02:23:08.009Z,25.60
2017-09-03T02:25:34.500Z,58.13
2017-09-03T02:28:01.075Z,10.47
2017-09-03T02:30:28.007Z,10.03
2017-09-03T02:32:54.460Z,11.60
2017-09-03T02:35:20.698Z,59.60
2017-09-03T02:37:47.184Z,26.43
2017-09-03T02:40:13.604Z,24.03
2017-09-03T02:42:39.819Z,53.00
2017-09-03T02:45:06.055Z,28.97
2017-09-03T02:47:33.059Z,32.67
2017-09-03T02:49:59.465Z,18.93
2017-09-03T02:52:25.950Z,11.70
2017-09-03T02:54:52.160Z,18.53
2017-09-03T02:57:18.390Z,20.73
2017-09-03T02:59:46.029Z,21.33
2017-09-03T03:02:12.298Z,17.13
2017-09-03T03:04:38.693Z,10.77
2017-09-03T03:07:04.931Z,21.83
2017-09-03T03:09:31.187Z,14.27
2017-09-03T03:11:57.910Z,14.30
2017-09-03T03:14:24.174Z,20.10
2017-09-03T03:16:50.388Z,21.37
2017-09-03T03:19:18.025Z,17.83
2017-09-03T03:21:45.347Z,12.13
2017-09-03T03:24:11.773Z,13.17
2017-09-03T03:26:38.337Z,15.17
2017-09-03T03:29:04.603Z,75.47
2017-09-03T03:31:30.864Z,82.00
2017-09-03T03:33:57.110Z,53.23
2017-09-03T03:36:23.333Z,19.03
2017-09-03T03:38:49.550Z,40.50
2017-09-03T03:41:15.781Z,37.50
2017-09-03T03:43:41.989Z,25.53
2017-09-03T03:46:08.215Z,52.90
2017-09-03T03:48:34.428Z,39.90
2017-09-03T03:51:00.647Z,27.00
2017-09-03T03:53:26.849Z,11.07
2017-09-03T03:55:54.339Z,17.77
2017-09-03T03:58:21.469Z,11.87
2017-09-03T04:00:47.746Z,13.23
2017-09-03T04:03:13.987Z,15.43
2017-09-03T04:05:40.208Z,12.67
2017-09-03T04:08:06.408Z,10.60
2017-09-03T04:10:32.723Z,19.43
2017-09-03T04:12:58.922Z,14.90
2017-09-03T04:15:25.149Z,18.70
2017-09-03T04:17:51.766Z,18.10
2017-09-03T04:20:17.981Z,10.80
2017-09-03T04:22:44.192Z,13.30
2017-09-03T04:25:10.541Z,11.50
2017-09-03T04:27:36.746Z,14.07
2017-09-03T04:30:03.037Z,14.03
2017-09-03T04:32:29.544Z,10.97
2017-09-03T04:34:55.789Z,14.67
2017-09-03T04:37:22.008Z,14.07
2017-09-03T04:39:48.231Z,9.73
2017-09-03T04:42:14.448Z,9.03
2017-09-03T04:44:40.670Z,30.67
2017-09-03T04:47:06.928Z,42.57
2017-09-03T04:49:33.143Z,10.80
2017-09-03T04:51:59.342Z,15.73
2017-09-03T04:54:25.850Z,16.60
2017-09-03T04:56:52.347Z,12.00
2017-09-03T04:59:18.565Z,8.83
2017-09-03T05:01:44.832Z,20.50
2017-09-03T05:04:11.050Z,33.97
2017-09-03T05:06:37.256Z,31.57
2017-09-03T05:09:03.524Z,16.07
2017-09-03T05:11:29.750Z,8.23
2017-09-03T05:13:55.974Z,10.90
2017-09-03T05:16:22.208Z,18.50
2017-09-03T05:18:48.422Z,29.27
2017-09-03T05:21:14.646Z,8.80
2017-09-03T05:23:40.869Z,23.47
2017-09-03T05:26:07.076Z,28.70
2017-09-03T05:28:33.284Z,11.53
2017-09-03T05:30:59.566Z,14.90
2017-09-03T05:33:25.795Z,11.40
2017-09-03T05:35:52.018Z,9.47
2017-09-03T05:38:18.260Z,9.17
2017-09-03T05:40:44.483Z,8.43
2017-09-03T05:43:10.685Z,12.87
2017-09-03T05:45:36.925Z,14.87
2017-09-03T05:48:03.131Z,14.20
2017-09-03T05:50:29.346Z,12.47
2017-09-03T05:52:55.567Z,8.53
2017-09-03T05:55:21.804Z,9.80
2017-09-03T05:57:48.044Z,9.70
2017-09-03T06:00:14.288Z,11.47
2017-09-03T06:02:40.500Z,11.23
2017-09-03T06:05:06.708Z,13.47
2017-09-03T06:07:32.947Z,11.87
2017-09-03T06:09:59.160Z,10.13
2017-09-03T06:12:25.387Z,11.70
2017-09-03T06:14:51.642Z,11.57
2017-09-03T06:17:17.866Z,13.50
2017-09-03T06:19:44.063Z,14.47
2017-09-03T06:22:10.287Z,26.07
2017-09-03T06:24:36.534Z,15.10
2017-09-03T06:27:02.731Z,14.63
2017-09-03T06:29:29.940Z,11.37
2017-09-03T06:31:56.971Z,13.00
2017-09-03T06:34:23.190Z,24.40
2017-09-03T06:36:49.420Z,21.07
2017-09-03T06:39:15.677Z,11.30
2017-09-03T06:41:41.903Z,15.17
2017-09-03T06:44:08.297Z,9.97
2017-09-03T06:46:34.577Z,10.87
2017-09-03T06:49:00.820Z,15.73
2017-09-03T06:51:28.063Z,13.03
2017-09-03T06:53:54.556Z,19.23
2017-09-03T06:56:20.754Z,10.50
2017-09-03T06:58:46.978Z,12.77
2017-09-03T07:01:13.258Z,9.30
2017-09-03T07:03:40.284Z,45.93
2017-09-03T07:06:06.574Z,16.63
2017-09-03T07:08:32.892Z,8.97
2017-09-03T07:10:59.101Z,33.23
2017-09-03T07:13:25.334Z,10.10
2017-09-03T07:15:51.567Z,6.23
2017-09-03T07:18:17.954Z,11.07
2017-09-03T07:20:44.186Z,7.30
2017-09-03T07:23:10.397Z,6.03
2017-09-03T07:25:36.792Z,8.00
2017-09-03T07:28:03.033Z,9.30
2017-09-03T07:30:29.473Z,7.17
2017-09-03T07:32:55.749Z,6.63
2017-09-03T07:35:21.980Z,5.00
2017-09-03T07:37:48.273Z,3.90
2017-09-03T07:40:14.513Z,4.00
2017-09-03T07:42:40.880Z,4.60
2017-09-03T07:45:07.119Z,18.50
2017-09-03T07:47:33.347Z,3.47
2017-09-03T07:49:59.564Z,3.40
2017-09-03T07:52:26.258Z,9.33
2017-09-03T07:54:52.495Z,8.23
2017-09-03T07:57:18.746Z,18.40
2017-09-03T07:59:45.096Z,9.63
2017-09-03T08:02:11.319Z,5.10
2017-09-03T08:04:37.652Z,7.03
2017-09-03T08:07:03.890Z,17.97
2017-09-03T08:09:30.237Z,1.87
2017-09-03T08:11:56.616Z,33.17
2017-09-03T08:14:22.852Z,6.57
2017-09-03T08:16:49.064Z,3.40
2017-09-03T08:19:15.308Z,5.33
2017-09-03T08:21:41.574Z,2.63
2017-09-03T08:24:07.845Z,5.90
2017-09-03T08:26:34.113Z,4.03
2017-09-03T08:29:00.518Z,9.13
2017-09-03T08:31:26.836Z,6.33
2017-09-03T08:33:53.042Z,9.97
2017-09-03T08:36:19.298Z,2.40
2017-09-03T08:38:46.238Z,3.00
2017-09-03T08:41:12.487Z,3.53
2017-09-03T08:43:38.716Z,3.53
2017-09-03T08:46:04.927Z,2.53
2017-09-03T08:48:31.140Z,2.50
2017-09-03T08:50:57.361Z,3.93
2017-09-03T08:53:23.608Z,2.07
2017-09-03T08:55:49.860Z,5.43
2017-09-03T08:58:16.078Z,2.53
2017-09-03T09:00:42.611Z,2.33
2017-09-03T09:03:08.824Z,2.40
2017-09-03T09:05:35.015Z,1.53
2017-09-03T09:08:01.242Z,1.50
2017-09-03T09:10:27.453Z,2.37
2017-09-03T09:12:53.653Z,3.07
2017-09-03T09:15:20.391Z,9.67
2017-09-03T09:17:46.601Z,3.47
2017-09-03T09:20:12.831Z,1.90
2017-09-03T09:22:39.093Z,1.90
2017-09-03T09:25:05.345Z,2.03
2017-09-03T09:27:31.587Z,2.03
2017-09-03T09:29:57.871Z,1.83
2017-09-03T09:32:24.081Z,2.40
2017-09-03T09:34:50.288Z,1.90
2017-09-03T09:37:16.542Z,3.60
2017-09-03T09:39:42.744Z,1.23
2017-09-03T09:42:08.969Z,2.20
2017-09-03T09:44:35.221Z,1.40
2017-09-03T09:47:01.447Z,2.20
2017-09-03T09:49:27.676Z,1.77
2017-09-03T09:51:54.222Z,1.60
2017-09-03T09:54:20.438Z,1.50
2017-09-03T09:56:46.664Z,1.70
2017-09-03T09:59:13.076Z,2.20
2017-09-03T10:01:39.283Z,1.50
2017-09-03T10:04:05.480Z,1.10
2017-09-03T10:06:31.695Z,1.63
2017-09-03T10:08:58.144Z,1.70
2017-09-03T10:11:25.653Z,1.23
2017-09-03T10:13:52.813Z,1.87
2017-09-03T10:16:20.260Z,1.33
2017-09-03T10:18:46.924Z,1.70
2017-09-03T10:21:13.171Z,1.70
2017-09-03T10:23:39.398Z,1.37
2017-09-03T10:26:05.618Z,1.73
2017-09-03T10:28:31.830Z,3.30
2017-09-03T10:30:58.031Z,1.73
2017-09-03T10:33:24.258Z,2.13
2017-09-03T10:35:50.483Z,1.93
2017-09-03T10:38:16.715Z,1.70
2017-09-03T10:40:42.980Z,1.70
2017-09-03T10:43:09.199Z,5.60
2017-09-03T10:45:35.428Z,1.73
2017-09-03T10:48:01.667Z,1.57
2017-09-03T10:50:28.287Z,1.27
2017-09-03T10:52:54.540Z,2.03
2017-09-03T10:55:20.881Z,9.80
2017-09-03T10:57:47.104Z,1.43
2017-09-03T11:00:13.331Z,33.13
2017-09-03T11:02:39.570Z,3.10
2017-09-03T11:05:05.787Z,1.60
2017-09-03T11:07:31.995Z,1.30
2017-09-03T11:09:58.268Z,1.27
2017-09-03T11:12:24.668Z,1.27
2017-09-03T11:14:51.121Z,1.40
2017-09-03T11:17:17.604Z,2.50
2017-09-03T11:19:43.818Z,2.60
2017-09-03T11:22:10.032Z,2.13
2017-09-03T11:24:36.623Z,1.40
2017-09-03T11:27:02.880Z,1.20
2017-09-03T11:29:29.104Z,1.17
2017-09-03T11:31:55.342Z,2.10
2017-09-03T11:34:21.557Z,2.23
2017-09-03T11:36:48.018Z,1.30
2017-09-03T11:39:14.530Z,1.77
2017-09-03T11:41:40.753Z,4.00
2017-09-03T11:44:06.972Z,3.23
2017-09-03T11:46:33.203Z,1.70
2017-09-03T11:48:59.404Z,1.30
2017-09-03T11:51:25.613Z,1.27
2017-09-03T11:53:51.985Z,1.47
2017-09-03T11:56:18.199Z,2.60
2017-09-03T11:58:44.835Z,2.47
2017-09-03T12:01:11.263Z,3.23
2017-09-03T12:03:37.537Z,1.00
2017-09-03T12:06:03.809Z,1.20
2017-09-03T12:08:30.029Z,1.37
2017-09-03T12:10:56.787Z,1.33
2017-09-03T12:13:22.996Z,1.70
2017-09-03T12:15:49.378Z,1.17
2017-09-03T12:18:15.619Z,1.20
2017-09-03T12:20:41.988Z,2.63
2017-09-03T12:23:08.304Z,1.40
2017-09-03T12:25:34.529Z,1.20
2017-09-03T12:28:00.755Z,1.73
2017-09-03T12:30:26.972Z,47.30
2017-09-03T12:32:53.167Z,34.20
2017-09-03T12:35:19.648Z,1.43
2017-09-03T12:37:45.856Z,1.83
2017-09-03T12:40:12.953Z,19.83
2017-09-03T12:42:39.156Z,29.20
2017-09-03T12:45:06.228Z,1.20
2017-09-03T12:47:32.535Z,10.90
2017-09-03T12:49:58.950Z,1.90
2017-09-03T12:52:25.172Z,2.30
2017-09-03T12:54:51.460Z,8.50
2017-09-03T12:57:17.657Z,3.40
2017-09-03T12:59:43.880Z,2.67
2017-09-03T13:02:10.171Z,4.67
2017-09-03T13:04:36.439Z,35.07
2017-09-03T13:07:02.715Z,1.43
2017-09-03T13:09:29.196Z,2.67
2017-09-03T13:11:55.601Z,1.43
2017-09-03T13:14:21.852Z,1.20
2017-09-03T13:16:48.098Z,2.90
2017-09-03T13:19:14.335Z,1.63
2017-09-03T13:21:40.783Z,2.30
2017-09-03T13:24:07.052Z,2.33
2017-09-03T13:26:33.316Z,2.43
2017-09-03T13:28:59.764Z,5.67
2017-09-03T13:31:26.159Z,1.57
2017-09-03T13:33:52.420Z,2.83
2017-09-03T13:36:19.077Z,1.30
2017-09-03T13:38:45.330Z,4.50
2017-09-03T13:41:11.612Z,2.00
2017-09-03T13:43:37.902Z,2.50
2017-09-03T13:46:04.151Z,3.63
2017-09-03T13:48:30.411Z,4.40
2017-09-03T13:50:56.745Z,2.00
2017-09-03T13:53:22.992Z,1.13
2017-09-03T13:55:49.253Z,1.70
2017-09-03T13:58:15.488Z,4.23
2017-09-03T14:00:41.855Z,6.20
2017-09-03T14:03:08.140Z,1.30
2017-09-03T14:05:34.376Z,2.03
2017-09-03T14:08:00.629Z,1.00
2017-09-03T14:10:26.891Z,3.40
2017-09-03T14:12:53.133Z,1.80
2017-09-03T14:15:19.384Z,1.67
2017-09-03T14:17:45.669Z,1.00
2017-09-03T14:20:11.901Z,1.20
2017-09-03T14:22:38.173Z,1.20
2017-09-03T14:25:04.472Z,1.50
2017-09-03T14:27:30.717Z,1.03
2017-09-03T14:29:57.030Z,1.10
2017-09-03T14:32:23.277Z,1.50
2017-09-03T14:34:49.511Z,3.10
2017-09-03T14:37:15.979Z,1.53
2017-09-03T14:39:42.216Z,1.37
2017-09-03T14:42:08.464Z,4.00
2017-09-03T14:44:34.756Z,4.67
2017-09-03T14:47:01.009Z,1.40
2017-09-03T14:49:27.564Z,2.40
2017-09-03T14:51:53.803Z,1.00
2017-09-03T14:54:20.092Z,2.93
2017-09-03T14:56:46.405Z,1.20
2017-09-03T14:59:12.665Z,1.13
2017-09-03T15:01:38.964Z,2.53
2017-09-03T15:04:05.387Z,1.40
2017-09-03T15:06:31.613Z,5.27
2017-09-03T15:08:57.848Z,3.57
2017-09-03T15:11:24.214Z,2.10
2017-09-03T15:13:50.451Z,3.20
2017-09-03T15:16:16.700Z,1.73
2017-09-03T15:18:42.930Z,1.67
2017-09-03T15:21:09.187Z,1.67
2017-09-03T15:23:35.424Z,2.03
2017-09-03T15:26:01.816Z,2.00
2017-09-03T15:28:28.073Z,2.07
2017-09-03T15:30:54.344Z,1.10
2017-09-03T15:33:20.937Z,1.80
2017-09-03T15:35:47.163Z,3.60
2017-09-03T15:38:13.401Z,3.53
2017-09-03T15:40:39.676Z,3.47
2017-09-03T15:43:05.920Z,3.70
2017-09-03T15:45:32.140Z,2.80
2017-09-03T15:47:58.421Z,2.20
2017-09-03T15:50:24.644Z,2.40
2017-09-03T15:52:50.871Z,1.97
2017-09-03T15:55:17.288Z,2.80
2017-09-03T15:57:43.516Z,3.50
2017-09-03T16:00:16.764Z,1.77
2017-09-03T16:02:42.997Z,1.87
2017-09-03T16:05:09.277Z,1.63
2017-09-03T16:07:35.561Z,4.27
2017-09-03T16:10:01.816Z,1.90
2017-09-03T16:12:28.048Z,2.40
2017-09-03T16:14:54.323Z,2.77
2017-09-03T16:17:20.560Z,2.13
2017-09-03T16:19:46.791Z,2.03
2017-09-03T16:22:13.013Z,2.53
2017-09-03T16:24:39.596Z,4.23
2017-09-03T16:27:05.913Z,2.00
2017-09-03T16:29:32.161Z,3.40
2017-09-03T16:31:58.404Z,1.80
2017-09-03T16:34:24.835Z,2.23
2017-09-03T16:36:51.057Z,2.27
2017-09-03T16:39:17.284Z,1.87
2017-09-03T16:41:43.544Z,2.20
2017-09-03T16:44:09.808Z,2.20
2017-09-03T16:46:36.097Z,2.30
2017-09-03T16:49:02.396Z,2.20
2017-09-03T16:51:28.652Z,2.30
2017-09-03T16:53:54.938Z,2.30
2017-09-03T16:56:21.235Z,3.33
2017-09-03T16:58:47.556Z,2.30
2017-09-03T17:01:14.312Z,3.60
2017-09-03T17:03:40.580Z,2.80
2017-09-03T17:06:06.854Z,2.47
2017-09-03T17:08:33.379Z,3.60
2017-09-03T17:10:59.676Z,5.80
2017-09-03T17:13:25.915Z,3.40
2017-09-03T17:15:52.195Z,10.23
2017-09-03T17:18:18.467Z,5.73
2017-09-03T17:20:44.718Z,11.87
2017-09-03T17:23:10.964Z,22.40
2017-09-03T17:25:37.192Z,14.30
2017-09-03T17:28:03.427Z,6.70
2017-09-03T17:30:34.597Z,3.90
2017-09-03T17:33:01.565Z,4.67
2017-09-03T17:35:27.835Z,2.90
2017-09-03T17:37:54.961Z,4.33
2017-09-03T17:40:23.055Z,5.20
2017-09-03T17:43:00.908Z,4.40
2017-09-03T17:45:27.190Z,8.13
2017-09-03T17:47:53.423Z,5.10
2017-09-03T17:50:19.777Z,35.50
2017-09-03T17:52:46.337Z,9.10
2017-09-03T17:55:12.619Z,4.53
2017-09-03T17:57:38.871Z,3.80
2017-09-03T18:00:05.120Z,5.07
2017-09-03T18:02:31.445Z,38.83
2017-09-03T18:04:58.680Z,4.60
2017-09-03T18:07:24.972Z,12.63
2017-09-03T18:09:51.671Z,4.73
2017-09-03T18:12:17.921Z,3.93
2017-09-03T18:14:44.248Z,17.77
2017-09-03T18:17:10.499Z,3.80
2017-09-03T18:19:36.903Z,3.90
2017-09-03T18:22:03.137Z,5.40
2017-09-03T18:24:29.495Z,7.40
2017-09-03T18:26:55.767Z,15.87
2017-09-03T18:29:22.107Z,14.23
2017-09-03T18:31:48.867Z,7.37
2017-09-03T18:34:16.093Z,10.03
2017-09-03T18:36:42.352Z,7.00
2017-09-03T18:39:08.616Z,22.50
2017-09-03T18:41:35.715Z,7.60
2017-09-03T18:44:04.205Z,31.90
2017-09-03T18:46:31.950Z,11.57
2017-09-03T18:48:58.261Z,7.97
2017-09-03T18:51:24.525Z,8.17
2017-09-03T18:53:50.887Z,7.00
2017-09-03T18:56:18.717Z,8.40
2017-09-03T18:58:46.964Z,5.73
2017-09-03T19:01:13.547Z,6.60
2017-09-03T19:03:42.724Z,4.80
2017-09-03T19:06:09.026Z,5.00
2017-09-03T19:08:36.128Z,4.77
2017-09-03T19:11:02.490Z,4.80
2017-09-03T19:13:28.711Z,4.17
2017-09-03T19:15:55.666Z,3.90
2017-09-03T19:18:22.036Z,4.40
2017-09-03T19:20:48.261Z,4.20
2017-09-03T19:23:14.517Z,4.77
2017-09-03T19:25:41.065Z,4.60
2017-09-03T19:28:07.298Z,4.60
2017-09-03T19:30:33.837Z,5.40
2017-09-03T19:33:00.553Z,4.43
2017-09-03T19:35:27.479Z,4.80
2017-09-03T19:37:55.316Z,4.53
2017-09-03T19:40:22.095Z,4.13
2017-09-03T19:42:48.979Z,4.70
2017-09-03T19:45:16.051Z,5.20
2017-09-03T19:47:43.083Z,4.63
2017-09-03T19:50:10.304Z,4.90
2017-09-03T19:52:36.968Z,5.70
2017-09-03T19:55:04.928Z,4.10
2017-09-03T19:57:32.255Z,4.33
2017-09-03T19:59:58.747Z,4.30
2017-09-03T20:02:25.081Z,4.50
2017-09-03T20:04:51.725Z,4.10
2017-09-03T20:07:18.128Z,4.40
2017-09-03T20:09:44.356Z,4.00
2017-09-03T20:12:10.591Z,4.10
2017-09-03T20:14:36.812Z,6.73
2017-09-03T20:17:03.105Z,4.10
2017-09-03T20:19:29.335Z,5.07
2017-09-03T20:21:55.556Z,4.33
2017-09-03T20:24:21.994Z,4.30
2017-09-03T20:26:48.299Z,3.57
2017-09-03T20:29:14.528Z,3.63
2017-09-03T20:31:41.344Z,3.73
2017-09-03T20:34:07.962Z,4.70
2017-09-03T20:36:34.335Z,4.00
2017-09-03T20:39:00.671Z,3.67
2017-09-03T20:41:27.618Z,3.57
2017-09-03T20:43:54.032Z,3.67
2017-09-03T20:46:20.297Z,3.70
2017-09-03T20:48:46.548Z,3.90
2017-09-03T20:51:12.785Z,3.70
2017-09-03T20:53:39.304Z,6.07
2017-09-03T20:56:05.533Z,5.37
2017-09-03T20:58:31.754Z,4.00
2017-09-03T21:00:58.393Z,4.20
2017-09-03T21:03:24.624Z,5.83
2017-09-03T21:05:50.847Z,4.30
2017-09-03T21:08:17.075Z,4.87
2017-09-03T21:10:43.291Z,5.30
2017-09-03T21:13:09.512Z,5.03
2017-09-03T21:15:35.735Z,4.47
2017-09-03T21:18:01.940Z,4.60
2017-09-03T21:20:28.268Z,4.23
2017-09-03T21:22:54.504Z,4.23
2017-09-03T21:25:20.699Z,8.00
2017-09-03T21:27:46.956Z,6.13
2017-09-03T21:30:13.198Z,4.27
2017-09-03T21:32:39.436Z,4.60
2017-09-03T21:35:05.687Z,4.00
2017-09-03T21:37:31.906Z,4.20
2017-09-03T21:39:58.123Z,4.77
2017-09-03T21:42:24.467Z,5.70
2017-09-03T21:44:50.677Z,5.33
2017-09-03T21:47:16.901Z,5.10
2017-09-03T21:49:43.399Z,5.00
2017-09-03T21:52:09.633Z,4.87
2017-09-03T21:54:35.847Z,4.80
2017-09-03T21:57:02.105Z,5.20
2017-09-03T21:59:28.299Z,6.70
2017-09-03T22:01:54.527Z,6.13
2017-09-03T22:04:20.748Z,6.43
2017-09-03T22:06:47.273Z,5.10
2017-09-03T22:09:13.466Z,5.63
2017-09-03T22:11:39.716Z,5.10
2017-09-03T22:14:06.011Z,5.07
2017-09-03T22:16:32.444Z,5.53
2017-09-03T22:18:58.663Z,6.30
2017-09-03T22:21:24.912Z,5.97
2017-09-03T22:23:51.115Z,5.33
2017-09-03T22:26:17.324Z,6.40
2017-09-03T22:28:43.558Z,5.90
2017-09-03T22:31:09.779Z,6.17
2017-09-03T22:33:36.004Z,6.00
2017-09-03T22:36:02.220Z,5.37
2017-09-03T22:38:28.443Z,5.10
2017-09-03T22:40:54.645Z,5.20
2017-09-03T22:43:20.907Z,6.10
2017-09-03T22:45:47.128Z,5.50
2017-09-03T22:48:13.343Z,5.57
2017-09-03T22:50:39.589Z,5.50
2017-09-03T22:53:05.810Z,5.57
2017-09-03T22:55:32.038Z,5.27
2017-09-03T22:57:58.271Z,5.70
2017-09-03T23:00:24.494Z,6.37
2017-09-03T23:02:50.723Z,5.67
2017-09-03T23:05:17.809Z,7.30
2017-09-03T23:07:44.486Z,5.50
2017-09-03T23:10:10.711Z,6.10
2017-09-03T23:12:36.977Z,6.10
2017-09-03T23:15:03.209Z,5.77
2017-09-03T23:17:29.421Z,5.80
2017-09-03T23:19:55.656Z,6.47
2017-09-03T23:22:21.902Z,6.20
2017-09-03T23:24:48.123Z,5.43
2017-09-03T23:27:14.882Z,6.13
2017-09-03T23:29:41.088Z,8.73
2017-09-03T23:32:07.300Z,6.90
2017-09-03T23:34:33.535Z,7.00
2017-09-03T23:36:59.753Z,9.73
2017-09-03T23:39:25.976Z,16.10
2017-09-03T23:41:52.233Z,20.23
2017-09-03T23:44:18.431Z,5.80
2017-09-03T23:46:44.643Z,5.50
2017-09-03T23:49:11.456Z,5.80
2017-09-03T23:51:37.662Z,5.80
2017-09-03T23:54:03.889Z,6.90
2017-09-03T23:56:30.116Z,6.70
2017-09-03T23:58:56.335Z,5.97
